createdAt,value
2023-04-21T00:00:55.256Z,4.60
2023-04-21T00:03:24.510Z,4.40
2023-04-21T00:05:51.755Z,5.77
2023-04-21T00:08:19.196Z,4.40
2023-04-21T00:10:47.052Z,5.80
2023-04-21T00:13:14.584Z,4.90
2023-04-21T00:15:41.729Z,8.00
2023-04-21T00:18:09.960Z,3.90
2023-04-21T00:20:37.125Z,5.80
2023-04-21T00:23:04.050Z,7.20
2023-04-21T00:25:30.959Z,4.90
2023-04-21T00:27:57.684Z,4.43
2023-04-21T00:30:24.573Z,4.40
2023-04-21T00:32:54.164Z,4.90
2023-04-21T00:35:21.870Z,4.65
2023-04-21T00:37:50.316Z,5.00
2023-04-21T00:40:17.166Z,3.87
2023-04-21T00:42:43.952Z,6.97
2023-04-21T00:45:11.283Z,6.07
2023-04-21T00:47:38.274Z,5.97
2023-04-21T00:50:05.536Z,4.53
2023-04-21T00:52:33.276Z,5.77
2023-04-21T00:55:00.436Z,5.87
2023-04-21T00:57:29.143Z,5.03
2023-04-21T00:59:55.998Z,6.30
2023-04-21T01:02:23.595Z,9.87
2023-04-21T01:04:50.447Z,9.10
2023-04-21T01:07:17.122Z,13.97
2023-04-21T01:09:44.003Z,8.43
2023-04-21T01:12:12.195Z,9.17
2023-04-21T01:14:40.456Z,9.13
2023-04-21T01:17:09.071Z,11.47
2023-04-21T01:19:41.516Z,10.57
2023-04-21T01:22:12.670Z,14.83
2023-04-21T01:24:47.362Z,14.40
2023-04-21T01:27:18.940Z,8.67
2023-04-21T01:29:48.860Z,12.10
2023-04-21T01:32:19.003Z,9.35
2023-04-21T01:34:46.476Z,6.70
2023-04-21T01:37:16.065Z,9.67
2023-04-21T01:39:45.455Z,9.82
2023-04-21T01:42:12.552Z,9.37
2023-04-21T01:44:39.725Z,8.03
2023-04-21T01:47:07.284Z,7.33
2023-04-21T01:49:34.062Z,6.57
2023-04-21T01:52:00.856Z,6.77
2023-04-21T01:54:27.561Z,10.77
2023-04-21T01:56:54.415Z,7.80
2023-04-21T01:59:21.552Z,6.27
2023-04-21T02:01:48.483Z,6.33
2023-04-21T02:04:15.411Z,6.77
2023-04-21T02:06:42.371Z,8.47
2023-04-21T02:09:09.119Z,15.07
2023-04-21T02:11:35.821Z,10.00
2023-04-21T02:14:02.516Z,10.90
2023-04-21T02:16:30.590Z,9.13
2023-04-21T02:18:58.005Z,5.37
2023-04-21T02:21:25.072Z,10.40
2023-04-21T02:23:52.747Z,6.57
2023-04-21T02:26:19.951Z,5.40
2023-04-21T02:28:47.491Z,6.10
2023-04-21T02:31:14.306Z,5.07
2023-04-21T02:33:41.119Z,9.17
2023-04-21T02:36:08.085Z,6.33
2023-04-21T02:38:35.093Z,6.20
2023-04-21T02:41:01.793Z,7.27
2023-04-21T02:43:28.503Z,5.43
2023-04-21T02:45:55.283Z,7.83
2023-04-21T02:48:24.909Z,5.97
2023-04-21T02:50:53.401Z,4.88
2023-04-21T02:53:20.885Z,4.40
2023-04-21T02:55:47.737Z,7.50
2023-04-21T02:58:14.547Z,8.20
2023-04-21T03:00:41.555Z,5.27
2023-04-21T03:03:08.552Z,5.30
2023-04-21T03:05:35.650Z,5.07
2023-04-21T03:08:02.458Z,4.90
2023-04-21T03:10:29.083Z,7.73
2023-04-21T03:12:56.560Z,5.37
2023-04-21T03:15:23.990Z,6.43
2023-04-21T03:17:50.865Z,6.80
2023-04-21T03:20:18.156Z,5.90
2023-04-21T03:22:44.797Z,7.83
2023-04-21T03:25:12.154Z,6.07
2023-04-21T03:27:39.269Z,8.70
2023-04-21T03:30:07.198Z,5.00
2023-04-21T03:32:33.916Z,8.13
2023-04-21T03:35:00.682Z,5.00
2023-04-21T03:37:27.571Z,8.40
2023-04-21T03:39:54.250Z,7.57
2023-04-21T03:42:20.919Z,6.70
2023-04-21T03:44:47.773Z,9.13
2023-04-21T03:47:14.421Z,6.87
2023-04-21T03:49:41.266Z,6.47
2023-04-21T03:52:08.049Z,5.87
2023-04-21T03:54:35.162Z,11.27
2023-04-21T03:57:01.825Z,6.83
2023-04-21T03:59:28.829Z,10.47
2023-04-21T04:01:55.602Z,8.30
2023-04-21T04:04:22.514Z,11.00
2023-04-21T04:06:49.357Z,9.87
2023-04-21T04:09:16.157Z,10.70
2023-04-21T04:11:43.049Z,9.93
2023-04-21T04:14:09.826Z,7.13
2023-04-21T04:16:36.672Z,8.77
2023-04-21T04:19:03.952Z,10.60
2023-04-21T04:21:32.724Z,4.97
2023-04-21T04:24:00.153Z,7.47
2023-04-21T04:26:26.901Z,5.33
2023-04-21T04:28:53.689Z,7.57
2023-04-21T04:31:20.488Z,4.37
2023-04-21T04:33:47.321Z,4.70
2023-04-21T04:36:14.200Z,6.10
2023-04-21T04:38:42.289Z,5.00
2023-04-21T04:41:09.220Z,6.83
2023-04-21T04:43:39.557Z,4.50
2023-04-21T04:48:33.335Z,5.20
2023-04-21T04:50:59.972Z,7.63
2023-04-21T04:53:29.087Z,5.93
2023-04-21T04:55:57.712Z,7.63
2023-04-21T04:58:24.700Z,6.67
2023-04-21T05:00:51.520Z,7.33
2023-04-21T05:03:18.487Z,4.87
2023-04-21T05:05:46.353Z,10.27
2023-04-21T05:08:13.785Z,10.73
2023-04-21T05:10:41.766Z,6.37
2023-04-21T05:13:08.444Z,7.30
2023-04-21T05:15:35.229Z,5.20
2023-04-21T05:18:01.924Z,7.33
2023-04-21T05:20:28.672Z,6.60
2023-04-21T05:22:55.536Z,5.87
2023-04-21T05:25:22.203Z,7.47
2023-04-21T05:27:48.846Z,7.33
2023-04-21T05:30:15.567Z,9.87
2023-04-21T05:32:42.189Z,6.37
2023-04-21T05:35:08.953Z,7.73
2023-04-21T05:37:35.783Z,5.73
2023-04-21T05:40:02.460Z,8.20
2023-04-21T05:42:29.204Z,9.20
2023-04-21T05:44:56.049Z,4.90
2023-04-21T05:47:24.743Z,5.43
2023-04-21T05:49:53.874Z,5.70
2023-04-21T05:52:23.467Z,8.43
2023-04-21T05:54:50.278Z,5.32
2023-04-21T05:57:17.925Z,5.20
2023-04-21T05:59:44.732Z,7.27
2023-04-21T06:02:12.318Z,7.07
2023-04-21T06:04:39.262Z,5.07
2023-04-21T06:07:10.599Z,5.63
2023-04-21T06:09:37.636Z,5.03
2023-04-21T06:12:04.521Z,4.90
2023-04-21T06:14:31.627Z,4.70
2023-04-21T06:16:58.626Z,4.60
2023-04-21T06:19:25.592Z,5.57
2023-04-21T06:21:52.460Z,4.67
2023-04-21T06:24:25.584Z,8.33
2023-04-21T06:26:53.633Z,6.80
2023-04-21T06:29:21.155Z,5.07
2023-04-21T06:31:48.252Z,6.93
2023-04-21T06:34:15.264Z,4.63
2023-04-21T06:36:42.044Z,4.97
2023-04-21T06:39:08.999Z,4.60
2023-04-21T06:41:36.370Z,4.80
2023-04-21T06:44:05.380Z,7.17
2023-04-21T06:46:32.165Z,5.20
2023-04-21T06:49:00.175Z,5.33
2023-04-21T06:51:27.220Z,6.53
2023-04-21T06:53:53.901Z,6.60
2023-04-21T06:56:22.312Z,4.63
2023-04-21T06:58:49.118Z,5.27
2023-04-21T07:01:17.219Z,9.87
2023-04-21T07:03:44.187Z,5.30
2023-04-21T07:06:11.208Z,4.97
2023-04-21T07:08:38.027Z,3.77
2023-04-21T07:11:04.891Z,4.67
2023-04-21T07:13:31.617Z,3.83
2023-04-21T07:15:58.573Z,3.97
2023-04-21T07:18:25.788Z,5.93
2023-04-21T07:20:52.688Z,3.43
2023-04-21T07:23:19.409Z,3.73
2023-04-21T07:25:46.186Z,6.87
2023-04-21T07:28:15.334Z,5.37
2023-04-21T07:30:42.060Z,3.67
2023-04-21T07:33:09.504Z,6.23
2023-04-21T07:35:38.222Z,3.90
2023-04-21T07:38:04.997Z,3.60
2023-04-21T07:40:31.957Z,4.93
2023-04-21T07:42:58.680Z,5.63
2023-04-21T07:45:26.419Z,4.17
2023-04-21T07:47:53.749Z,3.40
2023-04-21T07:50:20.499Z,3.80
2023-04-21T07:52:48.237Z,3.73
2023-04-21T07:55:15.354Z,5.07
2023-04-21T07:57:42.177Z,3.53
2023-04-21T08:00:10.528Z,3.40
2023-04-21T08:02:37.313Z,4.50
2023-04-21T08:05:04.291Z,4.10
2023-04-21T08:07:31.971Z,3.47
2023-04-21T08:09:59.086Z,3.50
2023-04-21T08:12:26.427Z,4.00
2023-04-21T08:14:53.159Z,3.70
2023-04-21T08:17:19.936Z,3.83
2023-04-21T08:19:46.644Z,5.53
2023-04-21T08:22:13.386Z,3.93
2023-04-21T08:24:40.143Z,4.63
2023-04-21T08:27:06.966Z,4.03
2023-04-21T08:29:33.663Z,4.27
2023-04-21T08:32:00.569Z,4.50
2023-04-21T08:34:27.993Z,5.17
2023-04-21T08:36:54.907Z,4.90
2023-04-21T08:39:21.871Z,4.20
2023-04-21T08:41:49.949Z,4.70
2023-04-21T08:44:17.585Z,3.87
2023-04-21T08:46:46.676Z,4.10
2023-04-21T08:49:19.374Z,4.13
2023-04-21T08:51:47.355Z,6.90
2023-04-21T08:54:14.182Z,4.10
2023-04-21T08:56:41.314Z,3.90
2023-04-21T08:59:08.060Z,4.67
2023-04-21T09:02:15.824Z,3.60
2023-04-21T09:04:44.763Z,3.97
2023-04-21T09:07:13.061Z,4.07
2023-04-21T09:09:53.918Z,5.63
2023-04-21T09:12:21.297Z,5.17
2023-04-21T09:14:48.586Z,4.67
2023-04-21T09:17:16.948Z,4.90
2023-04-21T09:19:44.485Z,4.40
2023-04-21T09:22:18.778Z,4.60
2023-04-21T09:24:58.526Z,4.63
2023-04-21T09:27:25.312Z,5.05
2023-04-21T09:29:52.118Z,5.30
2023-04-21T09:32:19.856Z,4.80
2023-04-21T09:34:48.260Z,5.60
2023-04-21T09:37:17.363Z,4.70
2023-04-21T09:40:03.387Z,4.63
2023-04-21T09:42:33.715Z,4.50
2023-04-21T09:45:28.398Z,4.47
2023-04-21T09:47:56.415Z,6.33
2023-04-21T09:50:51.275Z,5.13
2023-04-21T09:53:18.226Z,4.27
2023-04-21T09:55:49.666Z,3.23
2023-04-21T09:58:21.233Z,3.40
2023-04-21T10:00:50.201Z,3.23
2023-04-21T10:03:21.011Z,3.07
2023-04-21T10:05:48.181Z,2.97
2023-04-21T10:08:24.677Z,3.90
2023-04-21T10:10:53.748Z,3.70
2023-04-21T10:13:21.857Z,3.20
2023-04-21T10:15:49.555Z,3.40
2023-04-21T10:18:23.938Z,3.60
2023-04-21T10:20:58.624Z,3.37
2023-04-21T10:23:37.638Z,3.23
2023-04-21T10:26:55.547Z,3.07
2023-04-21T10:30:17.091Z,2.60
2023-04-21T10:32:46.855Z,2.60
2023-04-21T10:35:25.346Z,2.78
2023-04-21T10:38:15.005Z,3.73
2023-04-21T10:40:45.108Z,2.73
2023-04-21T10:43:48.459Z,3.13
2023-04-21T10:46:50.305Z,5.33
2023-04-21T10:49:25.471Z,2.77
2023-04-21T10:51:57.975Z,2.60
2023-04-21T10:54:27.955Z,3.40
2023-04-21T10:56:59.432Z,2.70
2023-04-21T10:59:29.811Z,4.60
2023-04-21T11:01:57.507Z,3.30
2023-04-21T11:04:24.883Z,2.83
2023-04-21T11:07:12.244Z,3.60
2023-04-21T11:09:40.837Z,3.00
2023-04-21T11:12:09.107Z,2.90
2023-04-21T11:14:38.474Z,3.03
2023-04-21T11:17:06.325Z,3.20
2023-04-21T11:19:32.994Z,3.27
2023-04-21T11:21:59.904Z,3.77
2023-04-21T11:24:26.768Z,3.40
2023-04-21T11:29:52.686Z,3.28
2023-04-21T11:32:19.526Z,3.30
2023-04-21T11:34:46.471Z,5.20
2023-04-21T11:37:20.941Z,3.40
2023-04-21T11:40:01.256Z,3.40
2023-04-21T11:42:28.553Z,3.10
2023-04-21T11:44:56.790Z,3.37
2023-04-21T11:47:28.177Z,3.13
2023-04-21T11:50:02.569Z,2.70
2023-04-21T11:52:33.543Z,3.10
2023-04-21T11:55:01.799Z,2.90
2023-04-21T11:57:30.121Z,3.20
2023-04-21T12:00:06.768Z,2.90
2023-04-21T12:02:34.519Z,3.60
2023-04-21T12:05:07.146Z,2.70
2023-04-21T12:07:46.386Z,2.73
2023-04-21T12:10:22.495Z,2.23
2023-04-21T12:12:49.398Z,2.83
2023-04-21T12:15:23.834Z,2.60
2023-04-21T12:17:55.312Z,2.27
2023-04-21T12:20:24.977Z,2.80
2023-04-21T12:22:53.575Z,2.75
2023-04-21T12:25:20.655Z,2.60
2023-04-21T12:27:51.505Z,2.50
2023-04-21T12:30:19.658Z,3.77
2023-04-21T12:32:47.724Z,2.20
2023-04-21T12:35:15.264Z,2.00
2023-04-21T12:37:43.488Z,2.50
2023-04-21T12:40:12.393Z,2.83
2023-04-21T12:42:39.238Z,2.13
2023-04-21T12:45:07.204Z,2.73
2023-04-21T12:47:35.149Z,2.10
2023-04-21T12:50:01.935Z,2.60
2023-04-21T12:52:28.763Z,3.23
2023-04-21T12:54:55.626Z,2.77
2023-04-21T12:57:25.633Z,2.20
2023-04-21T12:59:52.772Z,2.05
2023-04-21T13:02:19.777Z,2.67
2023-04-21T13:04:52.679Z,2.40
2023-04-21T13:07:21.968Z,2.40
2023-04-21T13:09:51.163Z,2.30
2023-04-21T13:12:17.864Z,2.20
2023-04-21T13:14:44.625Z,2.50
2023-04-21T13:17:11.454Z,2.30
2023-04-21T13:19:38.212Z,1.90
2023-04-21T13:22:04.830Z,2.60
2023-04-21T13:24:32.074Z,2.97
2023-04-21T13:26:59.953Z,2.90
2023-04-21T13:29:30.375Z,2.57
2023-04-21T13:31:57.304Z,2.17
2023-04-21T13:34:24.424Z,1.93
2023-04-21T13:36:51.143Z,2.50
2023-04-21T13:39:17.854Z,2.37
2023-04-21T13:41:47.657Z,2.17
2023-04-21T13:44:14.719Z,2.40
2023-04-21T13:46:42.737Z,2.30
2023-04-21T13:49:09.553Z,2.80
2023-04-21T13:51:36.913Z,2.00
2023-04-21T13:54:04.237Z,2.20
2023-04-21T13:56:31.461Z,2.20
2023-04-21T13:58:59.560Z,1.90
2023-04-21T14:01:26.314Z,2.30
2023-04-21T14:03:54.360Z,1.87
2023-04-21T14:06:21.633Z,2.07
2023-04-21T14:08:48.471Z,1.97
2023-04-21T14:11:15.163Z,1.90
2023-04-21T14:13:48.061Z,2.20
2023-04-21T14:16:28.792Z,3.23
2023-04-21T14:18:55.921Z,2.10
2023-04-21T14:21:23.017Z,2.07
2023-04-21T14:23:49.666Z,1.97
2023-04-21T14:26:16.865Z,1.90
2023-04-21T14:28:44.074Z,1.97
2023-04-21T14:31:10.817Z,2.17
2023-04-21T14:33:38.010Z,1.70
2023-04-21T14:36:07.711Z,2.00
2023-04-21T14:38:34.717Z,2.40
2023-04-21T14:41:04.603Z,2.10
2023-04-21T14:43:32.815Z,1.85
2023-04-21T14:45:59.717Z,1.90
2023-04-21T14:48:26.761Z,2.30
2023-04-21T14:50:53.632Z,2.00
2023-04-21T14:53:21.286Z,2.27
2023-04-21T14:55:48.698Z,2.50
2023-04-21T14:58:15.590Z,2.07
2023-04-21T15:00:43.087Z,1.80
2023-04-21T15:03:10.580Z,2.00
2023-04-21T15:05:43.729Z,1.80
2023-04-21T15:08:11.926Z,2.27
2023-04-21T15:10:38.826Z,2.07
2023-04-21T15:13:05.902Z,1.93
2023-04-21T15:15:33.610Z,1.90
2023-04-21T15:18:00.838Z,1.87
2023-04-21T15:20:43.201Z,2.07
2023-04-21T15:23:12.311Z,1.90
2023-04-21T15:25:39.984Z,2.03
2023-04-21T15:28:09.903Z,2.00
2023-04-21T15:30:36.834Z,1.90
2023-04-21T15:33:03.936Z,4.00
2023-04-21T15:35:30.655Z,2.50
2023-04-21T15:37:58.005Z,2.07
2023-04-21T15:41:00.111Z,2.40
2023-04-21T15:43:29.468Z,2.67
2023-04-21T15:45:56.418Z,2.00
2023-04-21T15:48:23.480Z,2.33
2023-04-21T15:50:51.216Z,2.07
2023-04-21T15:53:20.632Z,2.30
2023-04-21T15:55:47.524Z,2.55
2023-04-21T15:58:14.724Z,2.17
2023-04-21T16:00:44.545Z,2.40
2023-04-21T16:03:11.597Z,2.00
2023-04-21T16:05:38.665Z,2.10
2023-04-21T16:08:05.740Z,2.20
2023-04-21T16:10:32.471Z,2.20
2023-04-21T16:12:59.231Z,2.00
2023-04-21T16:15:26.396Z,2.50
2023-04-21T16:17:53.929Z,3.10
2023-04-21T16:20:21.681Z,2.30
2023-04-21T16:22:51.596Z,2.50
2023-04-21T16:25:19.557Z,2.15
2023-04-21T16:27:46.476Z,2.60
2023-04-21T16:30:13.510Z,2.50
2023-04-21T16:32:40.510Z,2.03
2023-04-21T16:35:11.686Z,2.63
2023-04-21T16:37:40.738Z,2.60
2023-04-21T16:40:09.662Z,2.63
2023-04-21T16:42:38.866Z,2.30
2023-04-21T16:45:07.153Z,2.50
2023-04-21T16:47:41.267Z,2.67
2023-04-21T16:50:09.600Z,3.87
2023-04-21T16:52:36.550Z,2.40
2023-04-21T16:55:03.460Z,5.17
2023-04-21T16:57:31.471Z,2.30
2023-04-21T17:00:01.459Z,2.63
2023-04-21T17:02:31.212Z,2.40
2023-04-21T17:05:04.582Z,2.28
2023-04-21T17:07:34.469Z,2.50
2023-04-21T17:10:01.750Z,2.30
2023-04-21T17:12:28.546Z,2.37
2023-04-21T17:14:55.369Z,2.93
2023-04-21T17:17:22.864Z,2.03
2023-04-21T17:19:49.916Z,2.40
2023-04-21T17:22:18.090Z,2.50
2023-04-21T17:24:53.360Z,16.43
2023-04-21T17:27:21.392Z,3.13
2023-04-21T17:29:48.393Z,4.57
2023-04-21T17:32:15.232Z,3.30
2023-04-21T17:34:42.014Z,5.93
2023-04-21T17:37:09.582Z,3.10
2023-04-21T17:39:36.465Z,2.70
2023-04-21T17:42:03.150Z,4.97
2023-04-21T17:44:30.047Z,2.80
2023-04-21T17:46:58.264Z,3.20
2023-04-21T17:49:25.654Z,2.87
2023-04-21T17:51:52.578Z,6.37
2023-04-21T17:54:19.310Z,8.70
2023-04-21T17:56:46.444Z,4.97
2023-04-21T17:59:13.879Z,4.47
2023-04-21T18:01:43.431Z,7.43
2023-04-21T18:04:10.365Z,9.52
2023-04-21T18:06:37.953Z,4.87
2023-04-21T18:09:05.255Z,5.53
2023-04-21T18:11:32.092Z,3.83
2023-04-21T18:13:59.054Z,3.57
2023-04-21T18:16:26.909Z,4.17
2023-04-21T18:18:53.726Z,4.30
2023-04-21T18:21:21.215Z,3.03
2023-04-21T18:23:48.316Z,3.17
2023-04-21T18:26:16.000Z,3.67
2023-04-21T18:28:42.888Z,3.47
2023-04-21T18:31:10.261Z,11.30
2023-04-21T18:33:37.021Z,15.50
2023-04-21T18:36:04.027Z,4.70
2023-04-21T18:38:31.856Z,7.23
2023-04-21T18:40:58.624Z,4.00
2023-04-21T18:43:25.554Z,4.43
2023-04-21T18:45:53.062Z,6.77
2023-04-21T18:48:19.861Z,3.97
2023-04-21T18:50:47.080Z,3.60
2023-04-21T18:53:14.349Z,5.40
2023-04-21T18:55:41.154Z,3.83
2023-04-21T18:58:07.930Z,4.10
2023-04-21T19:00:37.866Z,6.03
2023-04-21T19:03:08.208Z,24.02
2023-04-21T19:05:36.835Z,34.30
2023-04-21T19:08:06.276Z,47.03
2023-04-21T19:10:34.756Z,50.73
2023-04-21T19:13:01.673Z,49.90
2023-04-21T19:15:28.440Z,38.23
2023-04-21T19:17:56.613Z,20.93
2023-04-21T19:20:23.378Z,13.43
2023-04-21T19:22:50.097Z,9.27
2023-04-21T19:25:17.744Z,5.63
2023-04-21T19:27:44.604Z,8.47
2023-04-21T19:30:11.603Z,5.07
2023-04-21T19:32:41.219Z,7.40
2023-04-21T19:35:08.396Z,4.43
2023-04-21T19:37:36.269Z,4.33
2023-04-21T19:40:06.470Z,4.63
2023-04-21T19:42:34.157Z,5.32
2023-04-21T19:45:00.935Z,6.43
2023-04-21T19:47:27.932Z,4.23
2023-04-21T19:49:54.616Z,4.00
2023-04-21T19:52:21.427Z,4.47
2023-04-21T19:54:48.173Z,4.23
2023-04-21T19:57:17.564Z,5.90
2023-04-21T19:59:44.337Z,6.13
2023-04-21T20:02:11.066Z,3.90
2023-04-21T20:04:38.438Z,4.40
2023-04-21T20:07:06.092Z,4.17
2023-04-21T20:09:32.778Z,8.30
2023-04-21T20:12:00.110Z,3.77
2023-04-21T20:14:27.813Z,4.20
2023-04-21T20:16:54.659Z,5.53
2023-04-21T20:19:23.081Z,3.40
2023-04-21T20:21:52.654Z,3.27
2023-04-21T20:24:19.590Z,3.80
2023-04-21T20:26:46.320Z,4.07
2023-04-21T20:29:13.184Z,3.73
2023-04-21T20:31:39.917Z,3.50
2023-04-21T20:34:07.587Z,4.47
2023-04-21T20:36:37.175Z,3.57
2023-04-21T20:39:06.536Z,3.93
2023-04-21T20:41:33.349Z,3.57
2023-04-21T20:44:03.524Z,3.83
2023-04-21T20:46:30.358Z,4.97
2023-04-21T20:48:57.204Z,4.77
2023-04-21T20:51:26.893Z,3.67
2023-04-21T20:53:53.683Z,3.95
2023-04-21T20:56:21.816Z,3.40
2023-04-21T20:58:48.664Z,3.27
2023-04-21T21:01:15.480Z,3.50
2023-04-21T21:03:42.370Z,3.67
2023-04-21T21:06:09.250Z,3.60
2023-04-21T21:08:36.100Z,3.67
2023-04-21T21:11:03.214Z,4.97
2023-04-21T21:13:29.975Z,3.33
2023-04-21T21:15:56.661Z,3.93
2023-04-21T21:18:23.477Z,5.87
2023-04-21T21:20:50.261Z,3.90
2023-04-21T21:23:16.898Z,3.70
2023-04-21T21:25:43.621Z,3.87
2023-04-21T21:28:10.356Z,3.40
2023-04-21T21:30:37.039Z,3.77
2023-04-21T21:33:03.787Z,4.43
2023-04-21T21:35:30.612Z,4.13
2023-04-21T21:37:57.491Z,4.00
2023-04-21T21:40:24.182Z,3.90
2023-04-21T21:42:53.887Z,4.00
2023-04-21T21:45:20.787Z,3.97
2023-04-21T21:47:47.501Z,3.80
2023-04-21T21:50:14.325Z,3.97
2023-04-21T21:52:41.206Z,3.83
2023-04-21T21:55:08.467Z,4.13
2023-04-21T21:57:36.482Z,6.00
2023-04-21T22:00:07.766Z,4.00
2023-04-21T22:02:36.076Z,4.93
2023-04-21T22:05:04.596Z,3.70
2023-04-21T22:07:31.410Z,3.93
2023-04-21T22:10:00.949Z,4.20
2023-04-21T22:12:27.832Z,4.17
2023-04-21T22:14:55.896Z,4.93
2023-04-21T22:17:22.830Z,4.47
2023-04-21T22:19:49.874Z,4.97
2023-04-21T22:22:16.765Z,6.10
2023-04-21T22:24:43.527Z,5.17
2023-04-21T22:27:10.229Z,4.47
2023-04-21T22:29:38.495Z,4.87
2023-04-21T22:32:05.757Z,4.40
2023-04-21T22:34:32.540Z,7.57
2023-04-21T22:36:59.265Z,5.67
2023-04-21T22:39:26.377Z,4.57
2023-04-21T22:41:53.369Z,4.30
2023-04-21T22:44:21.021Z,4.63
2023-04-21T22:46:48.484Z,5.27
2023-04-21T22:49:15.190Z,5.43
2023-04-21T22:51:42.579Z,4.80
2023-04-21T22:54:09.245Z,4.30
2023-04-21T22:56:37.936Z,5.87
2023-04-21T22:59:04.805Z,5.73
2023-04-21T23:01:32.382Z,4.60
2023-04-21T23:03:59.471Z,5.30
2023-04-21T23:06:26.821Z,4.33
2023-04-21T23:08:53.428Z,4.83
2023-04-21T23:11:20.324Z,5.80
2023-04-21T23:13:47.131Z,5.27
2023-04-21T23:16:13.879Z,5.80
2023-04-21T23:18:40.811Z,6.07
2023-04-21T23:21:07.550Z,6.67
2023-04-21T23:23:34.318Z,4.87
2023-04-21T23:26:00.997Z,5.57
2023-04-21T23:28:27.840Z,5.87
2023-04-21T23:30:54.652Z,5.13
2023-04-21T23:33:21.657Z,5.93
2023-04-21T23:35:48.501Z,5.87
2023-04-21T23:38:15.315Z,5.00
2023-04-21T23:40:42.088Z,7.87
2023-04-21T23:43:08.845Z,6.20
2023-04-21T23:45:35.720Z,6.43
2023-04-21T23:48:02.561Z,4.83
2023-04-21T23:50:29.467Z,6.80
2023-04-21T23:52:56.289Z,6.97
2023-04-21T23:55:22.972Z,7.33
2023-04-21T23:57:49.785Z,5.23
